Time;durP1;ratioP1;P1;durP2;ratioP2;P2;SDS_P1;SDS_P2;PMS_P1;PMS_P2;Temp;Humidity;BMP_temperature;BMP_pressure;BME280_temperature;BME280_humidity;BME280_pressure;Samples;Min_cycle;Max_cycle;Signal;HPM_P1;HPM_P2
2023/12/07 00:00:36;;;;;;;55.65;2.47;;;;;;;;;;5093488;28;20194;-69
2023/12/07 00:03:06;;;;;;;56.00;2.83;;;;;;;;;;5093167;28;20232;-69
2023/12/07 00:05:33;;;;;;;56.08;2.95;;;;;;;;;;5092298;28;20248;-69
2023/12/07 00:08:00;;;;;;;56.30;3.15;;;;;;;;;;5092324;28;20205;-69
2023/12/07 00:10:29;;;;;;;56.55;3.63;;;;;;;;;;5092207;28;20224;-69
2023/12/07 00:12:56;;;;;;;56.17;3.30;;;;;;;;;;5098812;28;20225;-69
2023/12/07 00:15:23;;;;;;;56.10;3.10;;;;;;;;;;5092651;28;20553;-69
2023/12/07 00:17:50;;;;;;;56.10;3.13;;;;;;;;;;5092345;28;20209;-69
2023/12/07 00:20:17;;;;;;;55.80;2.33;;;;;;;;;;5091680;28;20198;-69
2023/12/07 00:22:44;;;;;;;55.75;2.60;;;;;;;;;;5092365;28;20226;-69
2023/12/07 00:25:11;;;;;;;55.85;2.50;;;;;;;;;;5092162;28;20205;-69
2023/12/07 00:27:40;;;;;;;56.90;2.92;;;;;;;;;;5092395;28;20211;-69
2023/12/07 00:30:08;;;;;;;56.10;2.80;;;;;;;;;;5092594;28;20226;-69
2023/12/07 00:32:35;;;;;;;56.17;3.03;;;;;;;;;;5092376;28;20260;-69
2023/12/07 00:35:02;;;;;;;55.70;2.60;;;;;;;;;;5092311;28;20211;-69
2023/12/07 00:37:29;;;;;;;55.97;2.88;;;;;;;;;;5092504;28;20206;-69
2023/12/07 00:39:56;;;;;;;55.90;2.65;;;;;;;;;;5092332;28;20202;-70
2023/12/07 00:42:23;;;;;;;55.83;2.95;;;;;;;;;;5091948;28;20240;-69
2023/12/07 00:44:52;;;;;;;56.97;3.28;;;;;;;;;;5092392;28;20316;-69
2023/12/07 00:47:19;;;;;;;55.65;2.72;;;;;;;;;;5092314;28;20210;-69
2023/12/07 00:49:46;;;;;;;55.85;2.80;;;;;;;;;;5092247;28;20703;-69
2023/12/07 00:52:13;;;;;;;57.80;2.80;;;;;;;;;;5091923;28;20226;-69
2023/12/07 00:54:40;;;;;;;55.70;2.30;;;;;;;;;;5092184;28;20218;-69
2023/12/07 00:57:07;;;;;;;58.13;3.55;;;;;;;;;;5092157;28;20207;-69
2023/12/07 00:59:34;;;;;;;55.90;2.85;;;;;;;;;;5092056;28;20201;-69
2023/12/07 01:02:03;;;;;;;56.08;2.65;;;;;;;;;;5091973;28;20605;-69
2023/12/07 01:04:31;;;;;;;55.97;3.47;;;;;;;;;;5091588;28;20212;-70
2023/12/07 01:06:58;;;;;;;55.95;2.83;;;;;;;;;;5091809;28;20205;-69
2023/12/07 01:09:25;;;;;;;55.80;2.30;;;;;;;;;;5091879;28;20210;-69
2023/12/07 01:11:52;;;;;;;58.05;4.53;;;;;;;;;;5091614;28;20210;-70
2023/12/07 01:14:20;;;;;;;55.67;2.58;;;;;;;;;;5091658;28;20211;-69
2023/12/07 01:16:47;;;;;;;56.67;3.55;;;;;;;;;;5091590;28;20221;-70
2023/12/07 01:19:15;;;;;;;58.15;3.75;;;;;;;;;;5091545;28;20206;-70
2023/12/07 01:21:43;;;;;;;60.55;3.88;;;;;;;;;;5091740;28;20210;-69
2023/12/07 01:24:10;;;;;;;55.88;2.70;;;;;;;;;;5091651;28;20206;-70
2023/12/07 01:26:37;;;;;;;56.38;2.67;;;;;;;;;;5091416;28;20670;-70
2023/12/07 01:29:04;;;;;;;56.00;3.10;;;;;;;;;;5091638;28;20588;-70
2023/12/07 01:31:31;;;;;;;55.90;2.75;;;;;;;;;;5091486;28;20340;-70
2023/12/07 01:33:58;;;;;;;55.78;2.35;;;;;;;;;;5091450;28;20241;-70
2023/12/07 01:36:27;;;;;;;55.60;2.58;;;;;;;;;;5091186;28;20213;-69
2023/12/07 01:38:54;;;;;;;56.15;2.70;;;;;;;;;;5091536;28;20255;-69
2023/12/07 01:41:21;;;;;;;56.85;4.88;;;;;;;;;;5091109;28;20205;-69
2023/12/07 01:43:48;;;;;;;55.97;2.60;;;;;;;;;;5091299;28;20237;-69
2023/12/07 01:46:16;;;;;;;55.97;2.53;;;;;;;;;;5090947;28;20602;-70
2023/12/07 01:48:43;;;;;;;55.78;2.40;;;;;;;;;;5090870;28;20207;-69
2023/12/07 01:51:12;;;;;;;56.55;3.58;;;;;;;;;;5091055;28;20233;-70
2023/12/07 01:53:41;;;;;;;55.95;2.85;;;;;;;;;;5091139;28;20723;-70
2023/12/07 01:56:10;;;;;;;57.55;3.13;;;;;;;;;;5090950;28;20209;-70
2023/12/07 01:58:37;;;;;;;55.90;2.78;;;;;;;;;;5091235;28;20592;-70
2023/12/07 02:01:05;;;;;;;56.08;3.03;;;;;;;;;;5090770;28;20197;-70
2023/12/07 02:03:33;;;;;;;56.80;3.55;;;;;;;;;;5091218;28;20309;-70
2023/12/07 02:06:00;;;;;;;56.08;3.00;;;;;;;;;;5091156;28;20206;-70
2023/12/07 02:08:27;;;;;;;55.95;2.70;;;;;;;;;;5090987;28;20213;-70
2023/12/07 02:10:56;;;;;;;56.15;3.17;;;;;;;;;;5090872;28;20229;-70
2023/12/07 02:13:23;;;;;;;55.65;2.50;;;;;;;;;;5090685;28;20236;-70
2023/12/07 02:15:51;;;;;;;55.72;2.53;;;;;;;;;;5091222;28;20201;-70
2023/12/07 02:18:23;;;;;;;55.97;2.90;;;;;;;;;;5094403;28;20217;-69
2023/12/07 02:20:55;;;;;;;55.90;2.72;;;;;;;;;;5095124;28;20203;-70
2023/12/07 02:23:23;;;;;;;55.75;2.75;;;;;;;;;;5094968;28;20232;-69
2023/12/07 02:25:53;;;;;;;55.63;2.70;;;;;;;;;;5094778;28;20206;-70
2023/12/07 02:28:22;;;;;;;55.78;2.50;;;;;;;;;;5094430;28;20288;-70
2023/12/07 02:30:49;;;;;;;57.78;3.33;;;;;;;;;;5094736;28;20727;-70
2023/12/07 02:33:16;;;;;;;57.03;4.00;;;;;;;;;;5094534;28;20230;-70
2023/12/07 02:35:43;;;;;;;56.10;3.08;;;;;;;;;;5095169;28;20221;-70
2023/12/07 02:38:11;;;;;;;56.00;2.50;;;;;;;;;;5094857;28;20205;-70
2023/12/07 02:40:39;;;;;;;56.03;3.10;;;;;;;;;;5094636;28;20656;-70
2023/12/07 02:43:06;;;;;;;56.00;2.90;;;;;;;;;;5094474;28;20233;-70
2023/12/07 02:45:34;;;;;;;55.65;2.50;;;;;;;;;;5094572;28;20202;-70
2023/12/07 02:48:02;;;;;;;55.80;2.55;;;;;;;;;;5094490;28;20216;-70
2023/12/07 02:50:29;;;;;;;60.05;5.35;;;;;;;;;;5094601;28;20594;-70
2023/12/07 02:52:56;;;;;;;55.88;3.15;;;;;;;;;;5094382;28;20228;-69
2023/12/07 02:55:23;;;;;;;56.10;3.22;;;;;;;;;;5094207;28;20237;-70
2023/12/07 02:57:51;;;;;;;55.88;2.75;;;;;;;;;;5094428;28;20208;-69
2023/12/07 03:00:19;;;;;;;56.20;3.13;;;;;;;;;;5094117;28;20207;-70
2023/12/07 03:02:47;;;;;;;58.30;3.83;;;;;;;;;;5094344;28;20664;-70
2023/12/07 03:05:15;;;;;;;55.90;2.70;;;;;;;;;;5094151;28;20206;-69
2023/12/07 03:07:42;;;;;;;55.75;2.78;;;;;;;;;;5094442;28;20663;-69
2023/12/07 03:10:09;;;;;;;55.90;2.60;;;;;;;;;;5094114;28;20227;-70
2023/12/07 03:12:36;;;;;;;56.03;2.70;;;;;;;;;;5093984;28;20256;-69
2023/12/07 03:15:04;;;;;;;55.90;2.55;;;;;;;;;;5093829;28;20208;-69
2023/12/07 03:17:31;;;;;;;55.70;2.83;;;;;;;;;;5093949;28;20336;-70
2023/12/07 03:19:59;;;;;;;56.03;3.03;;;;;;;;;;5094195;28;20209;-70
2023/12/07 03:22:27;;;;;;;56.03;2.90;;;;;;;;;;5093896;28;20233;-69
2023/12/07 03:24:54;;;;;;;56.15;3.38;;;;;;;;;;5093782;28;20214;-69
2023/12/07 03:27:21;;;;;;;55.90;2.70;;;;;;;;;;5093454;28;20209;-69
2023/12/07 03:29:48;;;;;;;56.30;3.28;;;;;;;;;;5093737;28;20209;-69
2023/12/07 03:32:15;;;;;;;57.30;3.10;;;;;;;;;;5093519;28;20226;-69
2023/12/07 03:34:42;;;;;;;56.15;2.97;;;;;;;;;;5093556;28;20682;-69
2023/12/07 03:37:10;;;;;;;56.60;3.67;;;;;;;;;;5093616;28;20239;-69
2023/12/07 03:39:37;;;;;;;56.10;2.97;;;;;;;;;;5093808;28;20205;-69
2023/12/07 03:42:05;;;;;;;55.78;2.47;;;;;;;;;;5093420;28;20251;-69
2023/12/07 03:44:32;;;;;;;55.88;2.83;;;;;;;;;;5093552;28;20208;-69
2023/12/07 03:46:59;;;;;;;56.08;3.00;;;;;;;;;;5093564;28;20221;-69
2023/12/07 03:49:26;;;;;;;55.75;2.55;;;;;;;;;;5093237;28;20221;-69
2023/12/07 03:51:53;;;;;;;56.00;2.58;;;;;;;;;;5092975;28;20716;-69
2023/12/07 03:54:22;;;;;;;56.15;2.90;;;;;;;;;;5093198;28;20206;-69
2023/12/07 03:56:50;;;;;;;56.47;3.80;;;;;;;;;;5093295;28;20294;-70
2023/12/07 03:59:17;;;;;;;56.00;2.80;;;;;;;;;;5093441;28;20216;-69
2023/12/07 04:01:44;;;;;;;55.97;3.15;;;;;;;;;;5093457;28;20262;-69
2023/12/07 04:04:12;;;;;;;56.20;3.10;;;;;;;;;;5093400;28;20202;-69
2023/12/07 04:06:39;;;;;;;56.83;3.50;;;;;;;;;;5093342;28;20205;-69
2023/12/07 04:09:06;;;;;;;56.00;2.90;;;;;;;;;;5093344;28;20210;-69
2023/12/07 04:11:34;;;;;;;57.85;3.15;;;;;;;;;;5092526;28;20736;-69
2023/12/07 04:14:02;;;;;;;56.08;3.00;;;;;;;;;;5093027;28;20232;-69
2023/12/07 04:16:29;;;;;;;56.30;3.05;;;;;;;;;;5092557;28;20571;-69
2023/12/07 04:18:56;;;;;;;56.15;3.00;;;;;;;;;;5092991;28;20220;-69
2023/12/07 04:21:23;;;;;;;56.20;2.78;;;;;;;;;;5092595;28;20211;-69
2023/12/07 04:23:50;;;;;;;56.63;3.42;;;;;;;;;;5092716;28;20705;-69
2023/12/07 04:26:17;;;;;;;56.00;2.97;;;;;;;;;;5092621;28;20231;-69
2023/12/07 04:28:46;;;;;;;55.97;2.97;;;;;;;;;;5092791;28;20202;-69
2023/12/07 04:31:13;;;;;;;56.40;3.25;;;;;;;;;;5092249;28;20223;-69
2023/12/07 04:33:40;;;;;;;56.28;3.05;;;;;;;;;;5092532;28;20233;-69
2023/12/07 04:36:08;;;;;;;56.28;3.42;;;;;;;;;;5092748;28;20213;-69
2023/12/07 04:38:35;;;;;;;56.35;3.08;;;;;;;;;;5093335;28;20205;-70
2023/12/07 04:41:02;;;;;;;56.20;3.10;;;;;;;;;;5092367;28;20201;-69
2023/12/07 04:43:30;;;;;;;56.28;3.30;;;;;;;;;;5092524;28;20229;-70
2023/12/07 04:45:58;;;;;;;57.20;3.55;;;;;;;;;;5092563;28;20213;-69
2023/12/07 04:48:26;;;;;;;56.13;3.00;;;;;;;;;;5092055;28;20212;-69
2023/12/07 04:50:53;;;;;;;57.92;3.42;;;;;;;;;;5091961;28;20224;-69
2023/12/07 04:53:20;;;;;;;56.38;3.42;;;;;;;;;;5092344;28;20514;-70
2023/12/07 04:55:50;;;;;;;56.20;3.20;;;;;;;;;;5091956;28;20208;-70
2023/12/07 04:58:17;;;;;;;56.30;3.55;;;;;;;;;;5092122;28;20303;-69
2023/12/07 05:00:44;;;;;;;56.10;2.80;;;;;;;;;;5092167;28;20223;-69
2023/12/07 05:03:12;;;;;;;57.50;4.13;;;;;;;;;;5091799;28;20618;-69
2023/12/07 05:05:39;;;;;;;56.00;2.85;;;;;;;;;;5083944;28;20215;-69
2023/12/07 05:08:06;;;;;;;56.08;2.85;;;;;;;;;;5092174;28;20215;-69
2023/12/07 05:10:34;;;;;;;56.17;3.17;;;;;;;;;;5091857;28;20208;-70
2023/12/07 05:13:01;;;;;;;56.25;3.00;;;;;;;;;;5091763;28;20260;-70
2023/12/07 05:15:28;;;;;;;56.17;2.80;;;;;;;;;;5091721;28;20237;-69
2023/12/07 05:17:55;;;;;;;56.40;3.38;;;;;;;;;;5091491;28;20235;-70
2023/12/07 05:20:26;;;;;;;56.22;2.95;;;;;;;;;;5091967;28;20205;-69
2023/12/07 05:22:53;;;;;;;56.00;2.72;;;;;;;;;;5091408;28;20250;-70
2023/12/07 05:25:20;;;;;;;55.75;2.60;;;;;;;;;;5091530;28;20556;-69
2023/12/07 05:27:47;;;;;;;56.15;2.95;;;;;;;;;;5091570;28;20213;-69
2023/12/07 05:30:14;;;;;;;55.97;2.80;;;;;;;;;;5091558;28;20212;-69
2023/12/07 05:32:41;;;;;;;56.00;2.53;;;;;;;;;;5091212;28;20233;-69
2023/12/07 05:35:09;;;;;;;56.30;3.17;;;;;;;;;;5091436;28;20209;-70
2023/12/07 05:37:37;;;;;;;56.15;2.92;;;;;;;;;;5091321;28;20200;-70
2023/12/07 05:40:05;;;;;;;56.10;2.60;;;;;;;;;;5091325;28;20209;-69
2023/12/07 05:42:33;;;;;;;56.47;3.25;;;;;;;;;;5091182;28;20735;-69
2023/12/07 05:45:00;;;;;;;56.20;2.97;;;;;;;;;;5091151;28;20208;-70
2023/12/07 05:47:27;;;;;;;55.95;3.00;;;;;;;;;;5091324;28;20217;-71
2023/12/07 05:49:57;;;;;;;56.10;2.85;;;;;;;;;;5091647;28;20212;-70
2023/12/07 05:52:24;;;;;;;55.95;2.60;;;;;;;;;;5089890;28;20617;-70
2023/12/07 05:54:52;;;;;;;55.97;2.80;;;;;;;;;;5091140;28;20244;-70
2023/12/07 05:57:19;;;;;;;56.17;2.90;;;;;;;;;;5091103;28;20209;-70
2023/12/07 05:59:47;;;;;;;56.10;2.70;;;;;;;;;;5091377;28;20209;-70
2023/12/07 06:02:14;;;;;;;56.08;2.80;;;;;;;;;;5090971;28;20226;-70
2023/12/07 06:04:41;;;;;;;56.05;2.97;;;;;;;;;;5091060;28;20216;-71
2023/12/07 06:07:08;;;;;;;56.25;2.83;;;;;;;;;;5091158;28;20208;-68
2023/12/07 06:09:35;;;;;;;56.05;2.85;;;;;;;;;;5091006;28;20210;-70
2023/12/07 06:12:04;;;;;;;57.15;3.67;;;;;;;;;;5090638;28;20228;-69
2023/12/07 06:14:32;;;;;;;56.28;3.10;;;;;;;;;;5091011;28;20578;-68
2023/12/07 06:17:00;;;;;;;56.05;2.78;;;;;;;;;;5090970;28;20212;-68
2023/12/07 06:19:27;;;;;;;55.88;2.80;;;;;;;;;;5090718;28;20665;-69
2023/12/07 06:21:54;;;;;;;56.83;3.65;;;;;;;;;;5090724;28;20579;-69
2023/12/07 06:24:23;;;;;;;56.85;4.45;;;;;;;;;;5091156;28;20575;-69
2023/12/07 06:26:50;;;;;;;56.08;2.65;;;;;;;;;;5090770;28;20265;-69
2023/12/07 06:29:19;;;;;;;56.08;3.00;;;;;;;;;;5091014;28;20208;-69
2023/12/07 06:31:46;;;;;;;56.17;2.80;;;;;;;;;;5090548;28;20713;-69
2023/12/07 06:34:13;;;;;;;57.90;3.58;;;;;;;;;;5090988;28;20204;-69
2023/12/07 06:36:40;;;;;;;56.42;3.50;;;;;;;;;;5090483;28;20202;-69
2023/12/07 06:39:07;;;;;;;56.20;2.88;;;;;;;;;;5090667;28;20209;-69
2023/12/07 06:41:34;;;;;;;56.00;2.90;;;;;;;;;;5090478;28;20685;-69
2023/12/07 06:44:02;;;;;;;56.25;3.17;;;;;;;;;;5090773;28;20252;-70
2023/12/07 06:46:30;;;;;;;56.30;3.60;;;;;;;;;;5090374;28;20203;-70
2023/12/07 06:48:57;;;;;;;56.30;2.90;;;;;;;;;;5090657;28;20209;-70
2023/12/07 06:51:23;;;;;;;56.30;3.10;;;;;;;;;;5090391;28;20208;-70
2023/12/07 06:53:51;;;;;;;56.10;3.10;;;;;;;;;;5090452;28;20221;-69
2023/12/07 06:56:18;;;;;;;57.00;3.95;;;;;;;;;;5090710;28;20292;-69
2023/12/07 06:58:45;;;;;;;57.83;3.83;;;;;;;;;;5090485;28;20205;-69
2023/12/07 07:01:12;;;;;;;55.97;2.80;;;;;;;;;;5090336;28;20213;-69
2023/12/07 07:03:41;;;;;;;57.92;3.10;;;;;;;;;;5092772;28;20601;-69
2023/12/07 07:06:08;;;;;;;56.20;3.10;;;;;;;;;;5094089;28;20573;-69
2023/12/07 07:08:35;;;;;;;56.50;3.50;;;;;;;;;;5094254;28;20211;-69
2023/12/07 07:11:03;;;;;;;56.20;3.03;;;;;;;;;;5094208;28;20197;-69
2023/12/07 07:13:30;;;;;;;56.10;3.15;;;;;;;;;;5094005;28;20256;-69
2023/12/07 07:15:57;;;;;;;57.38;4.78;;;;;;;;;;5094014;28;20576;-69
2023/12/07 07:18:25;;;;;;;56.30;3.20;;;;;;;;;;5093799;28;20585;-69
2023/12/07 07:20:53;;;;;;;56.08;3.05;;;;;;;;;;5093674;28;20209;-68
2023/12/07 07:23:20;;;;;;;56.60;3.80;;;;;;;;;;5093727;28;20713;-69
2023/12/07 07:25:47;;;;;;;56.58;3.65;;;;;;;;;;5093649;28;20687;-69
2023/12/07 07:28:14;;;;;;;56.10;3.03;;;;;;;;;;5093918;28;20585;-70
2023/12/07 07:30:41;;;;;;;56.28;3.28;;;;;;;;;;5093676;28;20613;-69
2023/12/07 07:33:08;;;;;;;56.00;2.60;;;;;;;;;;5093301;28;20254;-70
2023/12/07 07:35:35;;;;;;;56.00;2.60;;;;;;;;;;5093336;28;20205;-69
2023/12/07 07:38:04;;;;;;;56.30;3.10;;;;;;;;;;5093864;28;20198;-69
2023/12/07 07:40:31;;;;;;;56.20;3.20;;;;;;;;;;5093591;28;20204;-70
2023/12/07 07:42:58;;;;;;;56.10;3.05;;;;;;;;;;5093515;28;20213;-69
2023/12/07 07:45:25;;;;;;;56.00;2.90;;;;;;;;;;5093339;28;20673;-70
2023/12/07 07:47:52;;;;;;;55.95;2.88;;;;;;;;;;5093457;28;20585;-69
2023/12/07 07:50:19;;;;;;;57.05;3.20;;;;;;;;;;5093648;28;20227;-69
2023/12/07 07:52:46;;;;;;;56.40;3.33;;;;;;;;;;5093485;28;20246;-69
2023/12/07 07:55:15;;;;;;;57.13;3.45;;;;;;;;;;5093400;28;20208;-69
2023/12/07 07:57:42;;;;;;;56.10;3.28;;;;;;;;;;5093261;28;20213;-69
2023/12/07 08:00:10;;;;;;;56.30;3.35;;;;;;;;;;5093137;28;20197;-70
2023/12/07 08:02:37;;;;;;;56.17;3.03;;;;;;;;;;5092749;28;20235;-70
2023/12/07 08:05:05;;;;;;;56.67;3.38;;;;;;;;;;5093177;28;20209;-70
2023/12/07 08:07:32;;;;;;;56.05;2.80;;;;;;;;;;5092985;28;20236;-70
2023/12/07 08:09:59;;;;;;;55.97;3.17;;;;;;;;;;5092974;28;20649;-70
2023/12/07 08:12:27;;;;;;;56.67;3.78;;;;;;;;;;5092890;28;20232;-70
2023/12/07 08:14:54;;;;;;;55.97;2.80;;;;;;;;;;5091794;28;20573;-70
2023/12/07 08:17:21;;;;;;;56.20;3.20;;;;;;;;;;5092927;28;20299;-69
2023/12/07 08:19:49;;;;;;;56.00;3.17;;;;;;;;;;5093047;28;20207;-69
2023/12/07 08:22:16;;;;;;;55.88;2.80;;;;;;;;;;5092630;28;20701;-69
2023/12/07 08:24:43;;;;;;;55.78;2.80;;;;;;;;;;5092645;28;20209;-69
2023/12/07 08:27:10;;;;;;;55.90;3.10;;;;;;;;;;5092797;28;20206;-69
2023/12/07 08:29:38;;;;;;;56.20;3.25;;;;;;;;;;5092385;28;20653;-69
2023/12/07 08:32:06;;;;;;;56.00;2.70;;;;;;;;;;5092603;28;20236;-69
2023/12/07 08:34:33;;;;;;;56.20;3.03;;;;;;;;;;5092479;28;20201;-69
2023/12/07 08:37:00;;;;;;;56.47;3.80;;;;;;;;;;5092633;28;20209;-69
2023/12/07 08:39:27;;;;;;;55.90;2.80;;;;;;;;;;5092469;28;20204;-69
2023/12/07 08:41:54;;;;;;;55.92;2.70;;;;;;;;;;5092231;28;20636;-69
2023/12/07 08:44:21;;;;;;;56.42;3.22;;;;;;;;;;5092674;28;20201;-69
2023/12/07 08:46:50;;;;;;;57.22;3.38;;;;;;;;;;5092300;28;20215;-69
2023/12/07 08:49:17;;;;;;;55.92;2.72;;;;;;;;;;5092353;28;20208;-69
2023/12/07 08:51:45;;;;;;;55.97;2.53;;;;;;;;;;5092047;28;20218;-69
2023/12/07 08:54:12;;;;;;;56.47;3.00;;;;;;;;;;5092300;28;20657;-69
2023/12/07 08:56:39;;;;;;;56.58;3.10;;;;;;;;;;5091790;28;20211;-68
2023/12/07 08:59:06;;;;;;;56.08;3.28;;;;;;;;;;5091478;28;20210;-69
2023/12/07 09:01:34;;;;;;;56.38;3.25;;;;;;;;;;5092005;28;20208;-69
2023/12/07 09:04:03;;;;;;;56.40;3.40;;;;;;;;;;5092156;28;20236;-69
2023/12/07 09:06:30;;;;;;;55.83;2.53;;;;;;;;;;5091771;28;20206;-69
2023/12/07 09:08:57;;;;;;;56.00;3.22;;;;;;;;;;5091903;28;20220;-69
2023/12/07 09:11:24;;;;;;;56.17;3.30;;;;;;;;;;5091667;28;20205;-69
2023/12/07 09:13:51;;;;;;;56.20;3.05;;;;;;;;;;5091973;28;20340;-69
2023/12/07 09:16:19;;;;;;;55.88;3.08;;;;;;;;;;5091883;28;20568;-70
2023/12/07 09:18:46;;;;;;;56.78;3.42;;;;;;;;;;5091539;28;20206;-70
2023/12/07 09:21:14;;;;;;;56.30;3.15;;;;;;;;;;5091712;28;20251;-70
2023/12/07 09:23:41;;;;;;;55.90;2.92;;;;;;;;;;5091547;28;20587;-70
2023/12/07 09:26:08;;;;;;;55.88;3.00;;;;;;;;;;5091610;28;20202;-70
2023/12/07 09:28:35;;;;;;;55.95;3.17;;;;;;;;;;5091669;28;20210;-71
2023/12/07 09:31:03;;;;;;;56.50;3.45;;;;;;;;;;5091552;28;20204;-70
2023/12/07 09:33:30;;;;;;;57.10;3.03;;;;;;;;;;5091309;28;20685;-70
2023/12/07 09:35:57;;;;;;;55.60;2.58;;;;;;;;;;5091433;28;20227;-70
2023/12/07 09:38:25;;;;;;;55.53;2.70;;;;;;;;;;5091344;28;20201;-69
2023/12/07 09:40:55;;;;;;;55.88;3.13;;;;;;;;;;5091502;28;20201;-70
2023/12/07 09:43:22;;;;;;;55.80;3.00;;;;;;;;;;5091512;28;20245;-70
2023/12/07 09:45:49;;;;;;;56.00;3.13;;;;;;;;;;5091187;28;20296;-71
2023/12/07 09:48:18;;;;;;;55.67;2.95;;;;;;;;;;5091453;28;20203;-70
2023/12/07 09:50:45;;;;;;;55.70;2.40;;;;;;;;;;5091293;28;20202;-71
2023/12/07 09:53:12;;;;;;;55.97;3.00;;;;;;;;;;5091535;28;20228;-70
2023/12/07 09:55:41;;;;;;;56.10;2.77;;;;;;;;;;5091435;28;20211;-70
2023/12/07 09:58:08;;;;;;;55.70;2.53;;;;;;;;;;5091473;28;20893;-70
2023/12/07 10:00:35;;;;;;;56.10;3.20;;;;;;;;;;5091349;28;20533;-70
2023/12/07 10:03:02;;;;;;;57.03;3.17;;;;;;;;;;5091276;28;20944;-70
2023/12/07 10:05:29;;;;;;;56.30;2.73;;;;;;;;;;5090842;28;20540;-70
2023/12/07 10:07:56;;;;;;;56.40;2.90;;;;;;;;;;5091303;28;20454;-69
2023/12/07 10:10:23;;;;;;;56.00;2.20;;;;;;;;;;5091205;28;20455;-69
2023/12/07 10:12:54;;;;;;;55.77;2.30;;;;;;;;;;5090702;28;20492;-69
2023/12/07 10:15:23;;;;;;;56.07;2.27;;;;;;;;;;5091059;28;20461;-69
2023/12/07 10:17:50;;;;;;;56.53;2.60;;;;;;;;;;5090681;28;20856;-69
2023/12/07 10:20:18;;;;;;;55.57;2.20;;;;;;;;;;5091172;28;20449;-69
2023/12/07 10:22:45;;;;;;;57.33;2.83;;;;;;;;;;5090861;28;20462;-69
2023/12/07 10:25:12;;;;;;;56.30;2.50;;;;;;;;;;5091041;28;20457;-69
2023/12/07 10:27:40;;;;;;;56.40;2.70;;;;;;;;;;5090997;28;20453;-70
2023/12/07 10:30:10;;;;;;;56.87;2.80;;;;;;;;;;5090851;28;20481;-70
2023/12/07 10:32:38;;;;;;;56.63;2.40;;;;;;;;;;5090290;28;20494;-70
2023/12/07 10:35:07;;;;;;;56.50;2.60;;;;;;;;;;5088418;28;20453;-70
2023/12/07 10:37:34;;;;;;;57.47;3.57;;;;;;;;;;5090811;28;20537;-70
2023/12/07 10:40:01;;;;;;;56.77;3.13;;;;;;;;;;5094676;28;20452;-70
2023/12/07 10:42:32;;;;;;;56.80;3.57;;;;;;;;;;5094332;28;20904;-70
2023/12/07 10:44:59;;;;;;;56.30;2.40;;;;;;;;;;5094208;28;20830;-70
2023/12/07 10:47:28;;;;;;;57.00;2.90;;;;;;;;;;5094938;28;20457;-70
2023/12/07 10:49:58;;;;;;;55.87;2.27;;;;;;;;;;5094683;28;20964;-70
2023/12/07 10:52:25;;;;;;;56.40;2.97;;;;;;;;;;5094454;28;20468;-70
2023/12/07 10:55:00;;;;;;;58.67;3.50;;;;;;;;;;5094442;28;20444;-69
2023/12/07 10:57:28;;;;;;;58.47;5.00;;;;;;;;;;5094501;28;20449;-70
2023/12/07 10:59:56;;;;;;;58.60;2.30;;;;;;;;;;5094688;28;20466;-70
2023/12/07 11:02:23;;;;;;;57.80;2.47;;;;;;;;;;5094242;28;20513;-70
2023/12/07 11:04:52;;;;;;;56.40;2.63;;;;;;;;;;5094245;28;20440;-70
2023/12/07 11:07:22;;;;;;;59.00;3.13;;;;;;;;;;5094678;28;20445;-70
2023/12/07 11:09:53;;;;;;;56.40;2.50;;;;;;;;;;5094379;28;20960;-70
2023/12/07 11:12:22;;;;;;;57.60;2.87;;;;;;;;;;5094147;28;20572;-70
2023/12/07 11:14:49;;;;;;;56.17;2.53;;;;;;;;;;5094285;28;20484;-70
2023/12/07 11:17:17;;;;;;;56.60;2.37;;;;;;;;;;5094457;28;20452;-70
2023/12/07 11:19:45;;;;;;;56.77;2.80;;;;;;;;;;5094114;28;20450;-70
2023/12/07 11:22:14;;;;;;;57.17;3.13;;;;;;;;;;5093827;28;20487;-70
2023/12/07 11:24:53;;;;;;;56.17;2.30;;;;;;;;;;5093676;28;20574;-70
2023/12/07 11:27:20;;;;;;;56.53;2.80;;;;;;;;;;5094140;28;20447;-70
2023/12/07 11:29:48;;;;;;;57.90;3.80;;;;;;;;;;5093783;28;20453;-70
2023/12/07 11:32:15;;;;;;;56.90;2.50;;;;;;;;;;5093614;28;20461;-70
2023/12/07 11:34:43;;;;;;;56.67;2.50;;;;;;;;;;5093579;28;20485;-70
2023/12/07 11:37:10;;;;;;;56.37;2.53;;;;;;;;;;5093671;28;20456;-70
2023/12/07 11:39:41;;;;;;;56.50;3.00;;;;;;;;;;5093518;28;20459;-70
2023/12/07 11:42:09;;;;;;;56.47;2.87;;;;;;;;;;5093324;28;21039;-70
2023/12/07 11:44:36;;;;;;;56.17;2.47;;;;;;;;;;5093401;28;20493;-70
2023/12/07 11:47:03;;;;;;;55.87;2.10;;;;;;;;;;5093538;28;20459;-70
2023/12/07 11:49:31;;;;;;;56.70;2.93;;;;;;;;;;5093433;28;20450;-70
2023/12/07 11:51:58;;;;;;;56.77;3.60;;;;;;;;;;5093500;28;20450;-70
2023/12/07 11:54:25;;;;;;;56.30;2.40;;;;;;;;;;5093470;28;20504;-70
2023/12/07 11:56:55;;;;;;;56.73;3.00;;;;;;;;;;5093754;28;20447;-70
2023/12/07 11:59:22;;;;;;;55.87;2.07;;;;;;;;;;5093619;28;20476;-70
2023/12/07 12:01:49;;;;;;;56.60;2.47;;;;;;;;;;5093252;28;20447;-70
2023/12/07 12:04:17;;;;;;;56.90;3.27;;;;;;;;;;5093573;28;20490;-71
2023/12/07 12:06:45;;;;;;;56.70;2.80;;;;;;;;;;5093441;28;20485;-71
2023/12/07 12:09:16;;;;;;;56.17;2.70;;;;;;;;;;5093482;28;20529;-70
2023/12/07 12:11:46;;;;;;;55.77;1.97;;;;;;;;;;5092945;28;20893;-71
2023/12/07 12:14:15;;;;;;;56.47;2.67;;;;;;;;;;5093106;28;20443;-70
2023/12/07 12:16:42;;;;;;;56.37;2.33;;;;;;;;;;5092541;28;20826;-70
2023/12/07 12:19:09;;;;;;;56.07;2.43;;;;;;;;;;5092950;28;20948;-71
2023/12/07 12:21:38;;;;;;;55.80;2.33;;;;;;;;;;5092765;28;20450;-70
2023/12/07 12:24:05;;;;;;;56.47;2.87;;;;;;;;;;5092843;28;20542;-70
2023/12/07 12:26:34;;;;;;;56.40;2.70;;;;;;;;;;5092747;28;20453;-70
2023/12/07 12:29:01;;;;;;;56.57;2.30;;;;;;;;;;5092432;28;20441;-70
2023/12/07 12:31:30;;;;;;;56.43;2.20;;;;;;;;;;5092891;28;20442;-70
2023/12/07 12:33:57;;;;;;;56.07;2.67;;;;;;;;;;5092754;28;20498;-70
2023/12/07 12:36:27;;;;;;;56.30;2.47;;;;;;;;;;5092306;28;20453;-70
2023/12/07 12:38:54;;;;;;;56.57;3.20;;;;;;;;;;5091842;28;20957;-70
2023/12/07 12:41:21;;;;;;;57.00;2.90;;;;;;;;;;5091539;28;20468;-70
2023/12/07 12:43:48;;;;;;;55.97;2.60;;;;;;;;;;5090980;28;20496;-70
2023/12/07 12:46:16;;;;;;;55.77;2.30;;;;;;;;;;5090806;28;20456;-71
2023/12/07 12:48:58;;;;;;;55.90;2.10;;;;;;;;;;5091234;28;20451;-71
2023/12/07 12:51:26;;;;;;;55.67;1.90;;;;;;;;;;5091094;28;20445;-71
2023/12/07 12:53:54;;;;;;;56.17;2.30;;;;;;;;;;5090303;28;20465;-69
2023/12/07 12:56:22;;;;;;;56.27;2.33;;;;;;;;;;5091081;28;20461;-70
2023/12/07 12:58:49;;;;;;;56.07;2.80;;;;;;;;;;5092097;28;20449;-70
2023/12/07 13:01:17;;;;;;;56.60;2.80;;;;;;;;;;5090972;28;20453;-70
2023/12/07 13:03:46;;;;;;;56.43;2.40;;;;;;;;;;5091928;28;20535;-70
2023/12/07 13:06:15;;;;;;;55.77;2.00;;;;;;;;;;5091889;28;20498;-70
2023/12/07 13:08:43;;;;;;;56.33;2.33;;;;;;;;;;5091461;28;20488;-70
2023/12/07 13:11:10;;;;;;;56.50;2.10;;;;;;;;;;5091648;28;20821;-70
2023/12/07 13:13:37;;;;;;;56.00;2.60;;;;;;;;;;5092512;28;20903;-70
2023/12/07 13:16:05;;;;;;;56.20;2.70;;;;;;;;;;5093525;28;20453;-70
2023/12/07 13:18:32;;;;;;;56.50;2.37;;;;;;;;;;5093293;28;20453;-70
2023/12/07 13:20:59;;;;;;;56.50;3.63;;;;;;;;;;5093132;28;20799;-70
2023/12/07 13:23:28;;;;;;;56.07;2.60;;;;;;;;;;5092714;28;20522;-70
2023/12/07 13:25:55;;;;;;;59.53;3.13;;;;;;;;;;5091839;28;20447;-70
2023/12/07 13:28:23;;;;;;;56.07;1.93;;;;;;;;;;5091714;28;20475;-70
2023/12/07 13:30:50;;;;;;;56.27;2.53;;;;;;;;;;5091352;28;20452;-70
2023/12/07 13:33:17;;;;;;;57.93;3.00;;;;;;;;;;5091659;28;20817;-70
2023/12/07 13:35:44;;;;;;;56.23;2.27;;;;;;;;;;5091245;28;21101;-70
2023/12/07 13:38:11;;;;;;;56.10;2.20;;;;;;;;;;5091718;28;20448;-70
2023/12/07 13:40:41;;;;;;;55.90;1.90;;;;;;;;;;5091307;28;20971;-70
2023/12/07 13:43:09;;;;;;;57.57;2.10;;;;;;;;;;5091337;28;20516;-72
2023/12/07 13:45:36;;;;;;;56.00;2.00;;;;;;;;;;5091108;28;20496;-70
2023/12/07 13:48:03;;;;;;;56.57;2.60;;;;;;;;;;5083192;28;20447;-70
2023/12/07 13:50:30;;;;;;;55.57;1.80;;;;;;;;;;5091103;28;20460;-70
2023/12/07 13:52:57;;;;;;;55.87;1.80;;;;;;;;;;5091228;28;20473;-70
2023/12/07 13:55:24;;;;;;;55.37;1.87;;;;;;;;;;5091159;28;20890;-70
2023/12/07 13:57:54;;;;;;;56.17;2.30;;;;;;;;;;5091355;28;20453;-70
2023/12/07 14:00:22;;;;;;;55.90;2.30;;;;;;;;;;5091156;28;20450;-70
2023/12/07 14:02:49;;;;;;;55.67;2.30;;;;;;;;;;5090778;28;20476;-70
2023/12/07 14:05:18;;;;;;;56.43;2.67;;;;;;;;;;5091034;28;20848;-70
2023/12/07 14:07:45;;;;;;;55.90;2.10;;;;;;;;;;5091193;28;20824;-70
2023/12/07 14:10:12;;;;;;;55.47;1.90;;;;;;;;;;5091192;28;20534;-70
2023/12/07 14:12:39;;;;;;;56.10;2.13;;;;;;;;;;5091584;28;20479;-70
2023/12/07 14:15:09;;;;;;;56.10;2.03;;;;;;;;;;5095033;28;20935;-70
2023/12/07 14:17:37;;;;;;;55.70;2.30;;;;;;;;;;5095022;28;20469;-70
2023/12/07 14:20:05;;;;;;;55.87;1.87;;;;;;;;;;5095529;28;20941;-70
2023/12/07 14:22:32;;;;;;;55.80;2.00;;;;;;;;;;5095355;28;20535;-70
2023/12/07 14:24:59;;;;;;;55.20;1.77;;;;;;;;;;5094938;28;20494;-71
2023/12/07 14:27:26;;;;;;;55.83;2.10;;;;;;;;;;5095171;28;20451;-71
2023/12/07 14:29:53;;;;;;;55.67;2.07;;;;;;;;;;5094910;28;20458;-72
2023/12/07 14:32:21;;;;;;;55.77;2.20;;;;;;;;;;5094763;28;20467;-71